createdAt,value
2023-03-05T00:00:34.187Z,25.18
2023-03-05T00:03:05.748Z,24.56
2023-03-05T00:05:37.373Z,25.04
2023-03-05T00:08:09.007Z,25.41
2023-03-05T00:10:40.618Z,24.78
2023-03-05T00:13:12.197Z,25.47
2023-03-05T00:15:43.795Z,25.56
2023-03-05T00:18:15.437Z,25.79
2023-03-05T00:20:47.756Z,25.87
2023-03-05T00:23:19.364Z,25.30
2023-03-05T00:25:51.053Z,26.27
2023-03-05T00:28:23.020Z,26.51
2023-03-05T00:30:54.602Z,25.77
2023-03-05T00:33:26.307Z,25.65
2023-03-05T00:35:57.970Z,26.46
2023-03-05T00:38:29.543Z,25.92
2023-03-05T00:41:01.373Z,25.94
2023-03-05T00:43:32.958Z,26.68
2023-03-05T00:46:05.374Z,26.30
2023-03-05T00:48:37.019Z,26.20
2023-03-05T00:51:08.738Z,26.76
2023-03-05T00:53:40.295Z,25.59
2023-03-05T00:56:12.099Z,25.40
2023-03-05T00:58:43.742Z,24.83
2023-03-05T01:01:16.437Z,25.87
2023-03-05T01:03:48.167Z,26.26
2023-03-05T01:06:20.589Z,26.25
2023-03-05T01:08:52.234Z,27.06
2023-03-05T01:11:23.898Z,27.27
2023-03-05T01:13:55.640Z,26.67
2023-03-05T01:16:27.305Z,27.08
2023-03-05T01:18:59.101Z,27.65
2023-03-05T01:21:30.757Z,26.92
2023-03-05T01:24:03.161Z,28.41
2023-03-05T01:26:35.074Z,26.94
2023-03-05T01:29:06.921Z,27.50
2023-03-05T01:31:38.668Z,27.56
2023-03-05T01:34:10.659Z,28.29
2023-03-05T01:36:42.476Z,28.14
2023-03-05T01:39:14.680Z,28.62
2023-03-05T01:41:46.372Z,28.90
2023-03-05T01:44:29.457Z,30.60
2023-03-05T01:47:01.753Z,30.07
2023-03-05T01:49:41.068Z,30.21
2023-03-05T01:52:21.981Z,29.66
2023-03-05T01:54:58.050Z,30.41
2023-03-05T01:57:42.217Z,29.95
2023-03-05T02:00:19.889Z,29.93
2023-03-05T02:02:52.901Z,30.56
2023-03-05T02:05:30.148Z,31.61
2023-03-05T02:08:06.298Z,31.41
2023-03-05T02:10:48.780Z,31.50
2023-03-05T02:13:23.837Z,31.64
2023-03-05T02:15:58.938Z,32.02
2023-03-05T02:18:31.261Z,32.67
2023-03-05T02:21:07.877Z,32.46
2023-03-05T02:23:40.119Z,32.34
2023-03-05T02:26:11.781Z,33.08
2023-03-05T02:28:56.929Z,34.00
2023-03-05T02:31:28.801Z,33.36
2023-03-05T02:34:00.881Z,34.05
2023-03-05T02:36:32.933Z,34.09
2023-03-05T02:39:05.233Z,35.72
2023-03-05T02:41:37.034Z,34.89
2023-03-05T02:44:09.851Z,34.82
2023-03-05T02:46:41.826Z,36.35
2023-03-05T02:49:13.543Z,37.05
2023-03-05T02:51:45.212Z,37.63
2023-03-05T02:54:17.332Z,37.01
2023-03-05T02:56:49.974Z,37.85
2023-03-05T02:59:21.842Z,37.51
2023-03-05T03:01:53.632Z,37.03
2023-03-05T03:04:25.482Z,37.96
2023-03-05T03:06:57.221Z,37.84
2023-03-05T03:09:29.488Z,38.70
2023-03-05T03:12:01.475Z,40.16
2023-03-05T03:14:38.435Z,38.24
2023-03-05T03:17:13.957Z,39.76
2023-03-05T03:19:46.330Z,39.44
2023-03-05T03:22:17.925Z,39.14
2023-03-05T03:24:49.631Z,39.84
2023-03-05T03:27:21.270Z,39.57
2023-03-05T03:29:53.109Z,39.92
2023-03-05T03:32:24.746Z,41.02
2023-03-05T03:34:57.257Z,41.43
2023-03-05T03:37:30.455Z,40.65
2023-03-05T03:40:02.187Z,40.88
2023-03-05T03:42:33.919Z,41.24
2023-03-05T03:45:06.129Z,40.78
2023-03-05T03:47:37.965Z,41.58
2023-03-05T03:50:10.394Z,41.85
2023-03-05T03:52:41.992Z,40.53
2023-03-05T03:55:13.824Z,41.87
2023-03-05T03:57:45.536Z,40.86
2023-03-05T04:00:17.865Z,41.88
2023-03-05T04:02:49.761Z,41.30
2023-03-05T04:05:21.682Z,41.85
2023-03-05T04:07:53.509Z,41.99
2023-03-05T04:10:26.122Z,41.61
2023-03-05T04:12:57.835Z,41.95
2023-03-05T04:15:30.183Z,41.20
2023-03-05T04:18:01.984Z,42.77
2023-03-05T04:20:33.582Z,41.63
2023-03-05T04:23:05.238Z,41.86
2023-03-05T04:25:36.845Z,42.21
2023-03-05T04:28:08.626Z,42.26
2023-03-05T04:30:40.476Z,41.57
2023-03-05T04:33:12.202Z,42.67
2023-03-05T04:35:44.014Z,41.60
2023-03-05T04:38:16.017Z,42.36
2023-03-05T04:40:47.995Z,42.54
2023-03-05T04:43:19.742Z,42.68
2023-03-05T04:45:51.422Z,40.73
2023-03-05T04:48:23.321Z,41.84
2023-03-05T04:50:55.171Z,41.51
2023-03-05T04:53:26.823Z,41.50
2023-03-05T04:55:58.498Z,40.02
2023-03-05T04:58:30.255Z,41.44
2023-03-05T05:01:04.093Z,40.73
2023-03-05T05:03:35.905Z,41.38
2023-03-05T05:06:08.555Z,40.78
2023-03-05T05:08:40.365Z,40.76
2023-03-05T05:11:14.427Z,40.54
2023-03-05T05:13:46.301Z,40.66
2023-03-05T05:16:18.102Z,41.71
2023-03-05T05:18:49.943Z,40.46
2023-03-05T05:21:22.205Z,42.24
2023-03-05T05:23:53.912Z,40.67
2023-03-05T05:26:26.527Z,42.31
2023-03-05T05:28:58.319Z,40.93
2023-03-05T05:31:30.088Z,42.03
2023-03-05T05:34:02.448Z,41.31
2023-03-05T05:36:34.140Z,42.34
2023-03-05T05:39:05.893Z,41.74
2023-03-05T05:41:37.858Z,40.86
2023-03-05T05:44:09.974Z,40.97
2023-03-05T05:46:41.897Z,40.59
2023-03-05T05:49:13.664Z,41.93
2023-03-05T05:51:45.578Z,41.39
2023-03-05T05:54:17.275Z,42.60
2023-03-05T05:56:49.229Z,41.08
2023-03-05T05:59:21.156Z,42.55
2023-03-05T06:01:52.985Z,42.30
2023-03-05T06:04:25.187Z,42.58
2023-03-05T06:06:58.206Z,42.65
2023-03-05T06:09:30.318Z,42.18
2023-03-05T06:12:02.622Z,42.19
2023-03-05T06:14:34.521Z,42.97
2023-03-05T06:17:06.409Z,42.28
2023-03-05T06:19:38.181Z,41.76
2023-03-05T06:22:09.925Z,42.56
2023-03-05T06:24:42.298Z,41.42
2023-03-05T06:27:14.081Z,43.52
2023-03-05T06:29:46.470Z,42.27
2023-03-05T06:32:18.357Z,41.90
2023-03-05T06:34:50.588Z,41.60
2023-03-05T06:37:22.414Z,43.50
2023-03-05T06:39:54.132Z,44.56
2023-03-05T06:42:25.882Z,43.48
2023-03-05T06:44:57.789Z,42.43
2023-03-05T06:47:29.407Z,42.33
2023-03-05T06:50:02.920Z,43.98
2023-03-05T06:52:34.563Z,43.52
2023-03-05T06:55:07.068Z,43.10
2023-03-05T06:57:38.667Z,43.05
2023-03-05T07:00:10.973Z,42.19
2023-03-05T07:02:42.637Z,42.94
2023-03-05T07:05:14.546Z,43.36
2023-03-05T07:07:46.309Z,43.32
2023-03-05T07:10:18.588Z,41.74
2023-03-05T07:12:50.247Z,41.32
2023-03-05T07:15:22.343Z,40.52
2023-03-05T07:17:53.980Z,41.86
2023-03-05T07:20:25.604Z,41.95
2023-03-05T07:22:57.192Z,42.70
2023-03-05T07:25:29.309Z,42.26
2023-03-05T07:28:01.002Z,42.53
2023-03-05T07:30:34.117Z,42.07
2023-03-05T07:33:05.722Z,41.91
2023-03-05T07:35:40.685Z,41.67
2023-03-05T07:38:12.407Z,39.57
2023-03-05T07:40:44.332Z,42.41
2023-03-05T07:43:16.597Z,42.16
2023-03-05T07:45:49.349Z,41.14
2023-03-05T07:48:20.986Z,41.29
2023-03-05T07:51:08.432Z,42.32
2023-03-05T07:53:40.537Z,40.74
2023-03-05T07:56:12.530Z,40.78
2023-03-05T07:58:45.406Z,40.58
2023-03-05T08:01:17.115Z,41.17
2023-03-05T08:03:48.929Z,41.45
2023-03-05T08:06:20.995Z,40.56
2023-03-05T08:08:52.722Z,42.23
2023-03-05T08:11:24.765Z,42.18
2023-03-05T08:13:56.559Z,41.80
2023-03-05T08:16:28.205Z,40.44
2023-03-05T08:18:59.966Z,41.07
2023-03-05T08:21:34.548Z,41.72
2023-03-05T08:24:09.032Z,42.36
2023-03-05T08:26:41.455Z,40.52
2023-03-05T08:29:13.164Z,41.06
2023-03-05T08:31:46.490Z,40.63
2023-03-05T08:34:18.212Z,39.59
2023-03-05T08:36:50.500Z,41.52
2023-03-05T08:39:22.179Z,40.67
2023-03-05T08:41:53.996Z,40.39
2023-03-05T08:44:25.776Z,40.20
2023-03-05T08:46:57.929Z,40.98
2023-03-05T08:49:29.767Z,41.00
2023-03-05T08:52:01.434Z,41.44
2023-03-05T08:54:34.351Z,42.79
2023-03-05T08:57:06.528Z,42.83
2023-03-05T08:59:38.222Z,40.95
2023-03-05T09:02:14.165Z,41.46
2023-03-05T09:04:45.957Z,41.91
2023-03-05T09:07:17.679Z,41.11
2023-03-05T09:09:49.718Z,40.61
2023-03-05T09:12:21.404Z,41.11
2023-03-05T09:14:55.129Z,39.63
2023-03-05T09:17:26.871Z,40.37
2023-03-05T09:19:58.728Z,39.34
2023-03-05T09:22:30.407Z,40.25
2023-03-05T09:25:02.322Z,40.65
2023-03-05T09:27:35.510Z,40.56
2023-03-05T09:30:08.376Z,40.35
2023-03-05T09:32:40.233Z,40.98
2023-03-05T09:35:12.240Z,40.12
2023-03-05T09:37:43.908Z,40.17
2023-03-05T09:40:18.941Z,39.98
2023-03-05T09:43:15.473Z,40.82
2023-03-05T09:45:56.423Z,38.74
2023-03-05T09:48:47.209Z,40.33
2023-03-05T09:51:31.407Z,38.80
2023-03-05T09:54:35.401Z,39.55
2023-03-05T09:57:22.609Z,40.17
2023-03-05T10:00:00.120Z,39.46
2023-03-05T10:02:37.022Z,39.89
2023-03-05T10:05:08.555Z,38.51
2023-03-05T10:07:45.846Z,39.56
2023-03-05T10:10:31.600Z,40.66
2023-03-05T10:13:32.644Z,39.24
2023-03-05T10:16:26.352Z,40.02
2023-03-05T10:19:03.116Z,38.56
2023-03-05T10:21:56.989Z,39.01
2023-03-05T10:24:31.348Z,38.93
2023-03-05T10:27:12.275Z,38.62
2023-03-05T10:30:18.515Z,37.42
2023-03-05T10:33:16.378Z,37.65
2023-03-05T10:36:08.359Z,38.65
2023-03-05T10:39:02.581Z,36.59
2023-03-05T10:41:37.108Z,37.46
2023-03-05T10:44:33.371Z,36.75
2023-03-05T10:47:22.013Z,37.47
2023-03-05T10:49:56.654Z,36.93
2023-03-05T10:52:42.137Z,37.58
2023-03-05T10:55:17.149Z,37.24
2023-03-05T10:57:48.853Z,37.51
2023-03-05T11:00:24.136Z,36.72
2023-03-05T11:03:07.996Z,36.85
2023-03-05T11:05:52.101Z,36.92
2023-03-05T11:08:34.247Z,37.37
2023-03-05T11:11:16.492Z,37.78
2023-03-05T11:13:48.080Z,37.42
2023-03-05T11:16:29.546Z,37.17
2023-03-05T11:19:18.604Z,38.17
2023-03-05T11:22:16.562Z,38.03
2023-03-05T11:25:14.931Z,38.21
2023-03-05T11:27:54.884Z,36.46
2023-03-05T11:30:34.231Z,37.00
2023-03-05T11:33:16.714Z,38.23
2023-03-05T11:35:50.143Z,37.96
2023-03-05T11:38:27.725Z,37.48
2023-03-05T11:41:00.441Z,37.72
2023-03-05T11:43:33.431Z,37.75
2023-03-05T11:46:05.320Z,37.52
2023-03-05T11:48:40.068Z,38.06
2023-03-05T11:51:26.755Z,38.14
2023-03-05T11:54:08.974Z,37.01
2023-03-05T11:56:45.591Z,37.51
2023-03-05T11:59:35.143Z,36.54
2023-03-05T12:02:20.689Z,37.12
2023-03-05T12:04:52.590Z,38.12
2023-03-05T12:07:39.731Z,37.87
2023-03-05T12:10:22.134Z,37.49
2023-03-05T12:13:20.059Z,37.57
2023-03-05T12:16:17.196Z,38.01
2023-03-05T12:19:10.999Z,39.75
2023-03-05T12:21:48.604Z,38.57
2023-03-05T12:24:23.048Z,38.76
2023-03-05T12:27:03.544Z,38.25
2023-03-05T12:29:45.436Z,37.92
2023-03-05T12:32:23.321Z,37.71
2023-03-05T12:35:21.479Z,39.10
2023-03-05T12:37:53.219Z,39.21
2023-03-05T12:40:28.606Z,39.86
2023-03-05T12:43:25.728Z,38.52
2023-03-05T12:46:22.430Z,41.12
2023-03-05T12:48:54.269Z,40.65
2023-03-05T12:51:33.706Z,40.34
2023-03-05T12:54:38.258Z,40.73
2023-03-05T12:57:20.898Z,40.79
2023-03-05T13:00:06.131Z,40.44
2023-03-05T13:02:45.717Z,41.17
2023-03-05T13:05:30.736Z,39.84
2023-03-05T13:08:21.828Z,40.17
2023-03-05T13:11:01.460Z,40.95
2023-03-05T13:13:38.706Z,40.92
2023-03-05T13:16:27.047Z,41.09
2023-03-05T13:19:02.006Z,41.23
2023-03-05T13:21:34.420Z,41.62
2023-03-05T13:24:17.239Z,42.44
2023-03-05T13:26:48.858Z,42.33
2023-03-05T13:29:26.020Z,42.12
2023-03-05T13:32:02.024Z,42.48
2023-03-05T13:34:46.817Z,42.68
2023-03-05T13:37:26.723Z,41.80
2023-03-05T13:40:05.238Z,42.06
2023-03-05T13:42:36.859Z,41.68
2023-03-05T13:45:34.532Z,43.02
2023-03-05T13:48:07.162Z,42.28
2023-03-05T13:50:40.647Z,42.64
2023-03-05T13:53:22.764Z,42.08
2023-03-05T13:55:59.095Z,41.82
2023-03-05T13:58:49.904Z,42.15
2023-03-05T14:01:28.018Z,41.66
2023-03-05T14:04:41.546Z,42.12
2023-03-05T14:07:39.674Z,42.58
2023-03-05T14:10:43.648Z,42.97
2023-03-05T14:13:22.088Z,42.33
2023-03-05T14:16:06.488Z,42.76
2023-03-05T14:18:39.753Z,43.42
2023-03-05T14:21:12.439Z,43.37
2023-03-05T14:23:48.087Z,42.94
2023-03-05T14:26:31.535Z,43.72
2023-03-05T14:29:09.496Z,43.79
2023-03-05T14:31:53.136Z,44.04
2023-03-05T14:34:30.265Z,43.44
2023-03-05T14:37:19.180Z,42.48
2023-03-05T14:39:57.979Z,43.54
2023-03-05T14:42:33.037Z,43.22
2023-03-05T14:45:37.334Z,43.50
2023-03-05T14:48:13.191Z,43.25
2023-03-05T14:50:52.815Z,43.71
2023-03-05T14:53:30.366Z,44.19
2023-03-05T14:56:02.298Z,43.45
2023-03-05T14:58:34.534Z,42.45
2023-03-05T15:01:06.451Z,42.97
2023-03-05T15:03:38.235Z,41.86
2023-03-05T15:06:24.127Z,42.66
2023-03-05T15:08:58.012Z,42.77
2023-03-05T15:11:30.180Z,41.28
2023-03-05T15:14:01.913Z,41.51
2023-03-05T15:16:33.850Z,39.57
2023-03-05T15:19:05.607Z,40.85
2023-03-05T15:21:37.356Z,40.48
2023-03-05T15:24:11.300Z,40.34
2023-03-05T15:26:43.317Z,40.16
2023-03-05T15:29:15.164Z,39.81
2023-03-05T15:31:47.052Z,40.09
2023-03-05T15:34:18.733Z,39.95
2023-03-05T15:36:50.448Z,39.79
2023-03-05T15:39:23.610Z,40.64
2023-03-05T15:41:55.849Z,40.57
2023-03-05T15:44:28.073Z,40.50
2023-03-05T15:46:59.942Z,39.14
2023-03-05T15:49:32.244Z,40.06
2023-03-05T15:52:04.100Z,40.01
2023-03-05T15:54:36.066Z,40.16
2023-03-05T15:57:10.309Z,41.60
2023-03-05T15:59:41.996Z,41.82
2023-03-05T16:02:14.276Z,40.74
2023-03-05T16:04:46.208Z,41.61
2023-03-05T16:07:18.292Z,41.07
2023-03-05T16:09:53.296Z,40.79
2023-03-05T16:12:35.853Z,42.55
2023-03-05T16:15:15.445Z,42.27
2023-03-05T16:17:52.470Z,41.14
2023-03-05T16:20:24.266Z,42.25
2023-03-05T16:22:56.278Z,41.16
2023-03-05T16:25:28.008Z,40.45
2023-03-05T16:27:59.609Z,41.65
2023-03-05T16:30:31.478Z,42.90
2023-03-05T16:33:04.731Z,42.62
2023-03-05T16:35:36.690Z,43.15
2023-03-05T16:38:08.295Z,43.54
2023-03-05T16:41:06.316Z,42.24
2023-03-05T16:43:31.449Z,43.07
2023-03-05T16:46:03.031Z,42.07
2023-03-05T16:48:34.714Z,41.77
2023-03-05T16:51:06.700Z,41.28
2023-03-05T16:53:39.663Z,41.24
2023-03-05T16:56:11.612Z,41.09
2023-03-05T16:58:43.215Z,41.01
2023-03-05T17:01:20.140Z,40.35
2023-03-05T17:03:52.373Z,38.75
2023-03-05T17:06:27.077Z,39.37
2023-03-05T17:08:59.393Z,36.77
2023-03-05T17:11:31.371Z,35.44
2023-03-05T17:14:03.025Z,36.09
2023-03-05T17:16:34.669Z,36.36
2023-03-05T17:19:06.339Z,34.78
2023-03-05T17:21:38.455Z,35.97
2023-03-05T17:24:14.127Z,36.41
2023-03-05T17:26:46.088Z,37.72
2023-03-05T17:29:17.667Z,36.98
2023-03-05T17:31:51.228Z,38.29
2023-03-05T17:34:33.348Z,37.45
2023-03-05T17:37:07.093Z,37.01
2023-03-05T17:39:38.798Z,37.48
2023-03-05T17:42:10.503Z,37.70
2023-03-05T17:44:42.536Z,37.96
2023-03-05T17:47:14.320Z,38.36
2023-03-05T17:49:45.906Z,39.06
2023-03-05T17:52:17.499Z,38.46
2023-03-05T17:54:49.119Z,39.14
2023-03-05T17:57:22.140Z,38.74
2023-03-05T17:59:53.755Z,38.95
2023-03-05T18:02:25.318Z,39.36
2023-03-05T18:04:56.932Z,39.30
2023-03-05T18:07:28.635Z,39.67
2023-03-05T18:10:00.401Z,38.34
2023-03-05T18:12:32.106Z,38.41
2023-03-05T18:15:05.953Z,39.07
2023-03-05T18:17:38.348Z,38.53
2023-03-05T18:20:27.876Z,38.61
2023-03-05T18:23:01.888Z,39.34
2023-03-05T18:25:34.254Z,39.03
2023-03-05T18:28:12.432Z,38.88
2023-03-05T18:30:45.690Z,38.14
2023-03-05T18:33:20.980Z,38.19
2023-03-05T18:35:53.746Z,38.72
2023-03-05T18:38:29.240Z,39.48
2023-03-05T18:41:03.116Z,40.61
2023-03-05T18:43:35.133Z,41.91
2023-03-05T18:46:06.791Z,40.55
2023-03-05T18:48:38.593Z,41.00
2023-03-05T18:51:17.348Z,40.80
2023-03-05T18:53:49.370Z,40.20
2023-03-05T18:56:21.669Z,40.20
2023-03-05T18:58:53.669Z,40.09
2023-03-05T19:01:25.699Z,42.10
2023-03-05T19:03:57.486Z,40.90
2023-03-05T19:06:29.169Z,39.73
2023-03-05T19:09:01.078Z,40.17
2023-03-05T19:11:32.870Z,39.80
2023-03-05T19:14:04.553Z,39.45
2023-03-05T19:16:36.207Z,38.91
2023-03-05T19:19:12.224Z,38.14
2023-03-05T19:21:54.904Z,37.52
2023-03-05T19:24:30.286Z,37.55
2023-03-05T19:27:01.939Z,38.93
2023-03-05T19:29:33.757Z,38.37
2023-03-05T19:32:05.998Z,38.30
2023-03-05T19:34:38.149Z,38.09
2023-03-05T19:37:09.803Z,39.50
2023-03-05T19:39:41.874Z,38.53
2023-03-05T19:42:13.546Z,39.51
2023-03-05T19:44:45.773Z,38.27
2023-03-05T19:47:17.449Z,39.77
2023-03-05T19:49:49.039Z,39.39
2023-03-05T19:52:20.688Z,38.12
2023-03-05T19:54:52.340Z,38.00
2023-03-05T19:57:24.009Z,37.77
2023-03-05T19:59:55.730Z,37.44
2023-03-05T20:02:27.337Z,36.98
2023-03-05T20:04:58.928Z,36.90
2023-03-05T20:07:30.491Z,37.12
2023-03-05T20:10:02.197Z,35.83
2023-03-05T20:12:33.864Z,35.73
2023-03-05T20:15:06.120Z,33.78
2023-03-05T20:17:37.731Z,33.45
2023-03-05T20:20:10.282Z,30.74
2023-03-05T20:22:43.445Z,30.23
2023-03-05T20:25:17.647Z,27.91
2023-03-05T20:27:49.238Z,27.40
2023-03-05T20:30:20.973Z,26.39
2023-03-05T20:32:52.647Z,26.11
2023-03-05T20:35:24.406Z,25.39
2023-03-05T20:38:01.660Z,23.54
2023-03-05T20:40:33.406Z,23.37
2023-03-05T20:43:05.115Z,22.92
2023-03-05T20:45:36.752Z,22.99
2023-03-05T20:48:08.479Z,22.91
2023-03-05T20:50:40.192Z,22.17
2023-03-05T20:53:11.766Z,22.82
2023-03-05T20:55:43.551Z,22.58
2023-03-05T20:58:15.309Z,22.22
2023-03-05T21:00:47.038Z,22.28
2023-03-05T21:03:18.670Z,22.06
2023-03-05T21:05:50.457Z,21.77
2023-03-05T21:08:22.169Z,22.47
2023-03-05T21:10:54.000Z,22.16
2023-03-05T21:13:26.381Z,21.91
2023-03-05T21:16:00.059Z,22.26
2023-03-05T21:18:31.934Z,22.42
2023-03-05T21:21:03.931Z,23.04
2023-03-05T21:23:35.905Z,22.58
2023-03-05T21:26:13.256Z,21.69
2023-03-05T21:28:45.049Z,22.40
2023-03-05T21:31:21.101Z,21.92
2023-03-05T21:33:53.063Z,21.89
2023-03-05T21:36:25.066Z,20.89
2023-03-05T21:38:56.774Z,21.24
2023-03-05T21:41:28.489Z,22.02
2023-03-05T21:44:00.453Z,22.24
2023-03-05T21:46:32.218Z,22.94
2023-03-05T21:49:03.882Z,22.25
2023-03-05T21:51:35.740Z,22.01
2023-03-05T21:54:07.424Z,22.51
2023-03-05T21:56:39.012Z,21.62
2023-03-05T21:59:10.838Z,21.81
2023-03-05T22:01:42.674Z,22.33
2023-03-05T22:04:14.360Z,22.51
2023-03-05T22:06:46.094Z,22.75
2023-03-05T22:09:17.907Z,22.43
2023-03-05T22:11:49.583Z,22.90
2023-03-05T22:14:21.455Z,22.88
2023-03-05T22:16:53.312Z,23.86
2023-03-05T22:19:24.982Z,22.79
2023-03-05T22:21:56.715Z,23.29
2023-03-05T22:24:28.716Z,24.76
2023-03-05T22:27:00.504Z,23.62
2023-03-05T22:29:32.317Z,23.98
2023-03-05T22:32:04.295Z,24.34
2023-03-05T22:34:36.109Z,23.96
2023-03-05T22:37:07.852Z,24.86
2023-03-05T22:39:39.632Z,24.20
2023-03-05T22:42:11.356Z,25.32
2023-03-05T22:44:43.268Z,24.69
2023-03-05T22:47:15.220Z,25.32
2023-03-05T22:49:47.015Z,24.90
2023-03-05T22:52:19.229Z,25.55
2023-03-05T22:54:50.998Z,24.94
2023-03-05T22:57:22.664Z,24.52
2023-03-05T22:59:54.293Z,25.36
2023-03-05T23:02:25.878Z,25.07
2023-03-05T23:04:57.507Z,26.19
2023-03-05T23:07:35.395Z,25.81
2023-03-05T23:10:12.822Z,25.87
2023-03-05T23:12:47.752Z,25.02
2023-03-05T23:15:25.927Z,25.38
2023-03-05T23:17:58.041Z,26.10
2023-03-05T23:20:32.876Z,25.80
2023-03-05T23:23:04.924Z,25.37
2023-03-05T23:25:36.660Z,26.31
2023-03-05T23:28:08.312Z,24.83
2023-03-05T23:30:39.950Z,24.63
2023-03-05T23:33:18.113Z,24.59
2023-03-05T23:35:53.036Z,25.18
2023-03-05T23:38:27.077Z,25.27
2023-03-05T23:41:00.952Z,24.49
2023-03-05T23:43:32.860Z,25.48
2023-03-05T23:46:10.683Z,25.07
2023-03-05T23:48:42.318Z,26.08
2023-03-05T23:51:13.881Z,25.12
2023-03-05T23:53:45.460Z,24.88
2023-03-05T23:56:17.044Z,24.80
2023-03-05T23:58:48.706Z,24.68
